This is the latest recevied weather packets stored in our database for station/object OE6ATD-13. If no packets are shown the sender has not sent any weather packets the latest 10 day(s).
| Time | Temp. | Humidity | Pressure | Rain* | Wind** | Luminosity | Snow |
|---|---|---|---|---|---|---|---|
| 1777653922 | 21.67° C | 30% | 1024.5 hPa | 0 mm | - | 152 W/m² | - |
| 1777653318 | 22.22° C | 30% | 1024.5 hPa | 0 mm | - | 178 W/m² | - |
| 1777652729 | 21.67° C | 30% | 1024.4 hPa | 0 mm | - | 202 W/m² | - |
| 1777652125 | 21.67° C | 30% | 1024.3 hPa | 0 mm | - | 217 W/m² | - |
| 1777651520 | 22.78° C | 25% | 1024.4 hPa | 0 mm | - | 224 W/m² | - |
| 1777650916 | 21.67° C | 29% | 1024.4 hPa | 0 mm | - | 221 W/m² | - |
| 1777650327 | 21.67° C | 30% | 1024.4 hPa | 0 mm | - | 184 W/m² | - |
| 1777649722 | 21.11° C | 30% | 1024.6 hPa | 0 mm | - | 213 W/m² | - |
| 1777649118 | 21.11° C | 29% | 1024.7 hPa | 0 mm | - | 102 W/m² | - |
| 1777648529 | 21.67° C | 30% | 1024.8 hPa | 0 mm | - | 163 W/m² | - |
| 1777647925 | 22.22° C | 25% | 1024.8 hPa | 0 mm | - | 75 W/m² | - |
| 1777647320 | 21.67° C | 30% | 1024.8 hPa | 0 mm | - | 170 W/m² | - |
| 1777646716 | 21.67° C | 29% | 1024.9 hPa | 0 mm | - | 262 W/m² | - |
| 1777646127 | 21.11° C | 30% | 1025.1 hPa | 0 mm | - | 380 W/m² | - |
| 1777645523 | 21.67° C | 27% | 1025.1 hPa | 0 mm | - | 109 W/m² | - |
| 1777644919 | 21.11° C | 30% | 1025.1 hPa | 0 mm | - | 458 W/m² | - |
| 1777644329 | 21.11° C | 28% | 1025.2 hPa | 0 mm | - | 413 W/m² | - |
| 1777643725 | 20.56° C | 30% | 1025.3 hPa | 0 mm | - | 513 W/m² | - |
| 1777643120 | 20.56° C | 30% | 1025.5 hPa | 0 mm | - | 287 W/m² | - |
| 1777642515 | 18.89° C | 30% | 1025.5 hPa | 0 mm | - | 288 W/m² | - |
| 1777641927 | 20.56° C | 29% | 1025.7 hPa | 0 mm | - | 405 W/m² | - |
| 1777641322 | 21.11° C | 29% | 1025.8 hPa | 0 mm | - | 697 W/m² | - |
| 1777640725 | 21.11° C | 27% | 1025.8 hPa | 0 mm | - | 627 W/m² | - |
| 1777640120 | 21.11° C | 28% | 1025.9 hPa | 0 mm | - | 703 W/m² | - |
| 1777639516 | 20.56° C | 29% | 1025.9 hPa | 0 mm | - | 715 W/m² | - |
* Rain latest hour (hover to see other rain measurements)
** Current wind speed in m/s (hover to see current wind gust speed)